createdAt,value
2018-04-22T00:00:48.520Z,87.37
2018-04-22T00:01:48.519Z,87.27
2018-04-22T00:02:48.517Z,87.46
2018-04-22T00:03:48.516Z,87.65
2018-04-22T00:04:48.548Z,87.32
2018-04-22T00:05:48.514Z,87.23
2018-04-22T00:06:48.516Z,87.23
2018-04-22T00:07:48.514Z,87.41
2018-04-22T00:08:48.508Z,87.23
2018-04-22T00:09:48.506Z,87.32
2018-04-22T00:10:48.510Z,88.18
2018-04-22T00:11:48.508Z,88.18
2018-04-22T00:12:48.504Z,88.18
2018-04-22T00:13:48.502Z,87.99
2018-04-22T00:14:48.500Z,87.80
2018-04-22T00:15:48.500Z,87.99
2018-04-22T00:16:48.498Z,87.80
2018-04-22T00:17:48.499Z,88.52
2018-04-22T00:18:48.494Z,88.95
2018-04-22T00:19:48.496Z,88.85
2018-04-22T00:20:48.490Z,89.00
2018-04-22T00:21:48.489Z,89.29
2018-04-22T00:22:48.487Z,89.14
2018-04-22T00:23:48.485Z,89.29
2018-04-22T00:24:48.486Z,89.04
2018-04-22T00:25:48.485Z,89.33
2018-04-22T00:26:48.484Z,89.09
2018-04-22T00:27:48.478Z,89.14
2018-04-22T00:28:48.480Z,89.14
2018-04-22T00:29:48.478Z,89.62
2018-04-22T00:30:48.473Z,89.72
2018-04-22T00:31:48.480Z,89.72
2018-04-22T00:32:48.470Z,90.09
2018-04-22T00:33:48.467Z,89.90
2018-04-22T00:34:48.466Z,89.72
2018-04-22T00:35:48.465Z,89.72
2018-04-22T00:36:48.461Z,89.19
2018-04-22T00:37:48.460Z,89.62
2018-04-22T00:38:48.463Z,90.09
2018-04-22T00:39:48.461Z,90.09
2018-04-22T00:40:48.455Z,89.81
2018-04-22T00:41:48.453Z,90.00
2018-04-22T00:42:48.455Z,89.43
2018-04-22T00:43:48.454Z,89.33
2018-04-22T00:44:48.448Z,89.52
2018-04-22T00:45:48.447Z,89.62
2018-04-22T00:46:48.446Z,89.81
2018-04-22T00:47:48.444Z,89.14
2018-04-22T00:48:48.441Z,89.23
2018-04-22T00:49:48.441Z,89.43
2018-04-22T00:50:48.438Z,89.14
2018-04-22T00:51:48.438Z,89.23
2018-04-22T00:52:48.435Z,89.23
2018-04-22T00:53:48.433Z,89.33
2018-04-22T00:54:48.432Z,89.76
2018-04-22T00:55:48.430Z,88.76
2018-04-22T00:56:48.433Z,88.95
2018-04-22T00:57:48.430Z,89.33
2018-04-22T00:58:48.425Z,89.23
2018-04-22T00:59:48.425Z,89.43
2018-04-22T01:00:48.425Z,89.52
2018-04-22T01:01:48.423Z,89.72
2018-04-22T01:02:48.419Z,89.81
2018-04-22T01:03:48.417Z,90.19
2018-04-22T01:04:48.415Z,90.39
2018-04-22T01:05:48.412Z,89.72
2018-04-22T01:06:48.412Z,89.81
2018-04-22T01:07:48.409Z,89.14
2018-04-22T01:08:48.411Z,88.95
2018-04-22T01:09:48.409Z,88.70
2018-04-22T01:10:48.404Z,87.84
2018-04-22T01:11:48.407Z,88.23
2018-04-22T01:12:48.400Z,87.65
2018-04-22T01:13:48.399Z,88.03
2018-04-22T01:14:48.398Z,87.94
2018-04-22T01:15:48.399Z,87.74
2018-04-22T01:16:48.393Z,88.61
2018-04-22T01:17:48.392Z,87.94
2018-04-22T01:18:48.389Z,88.61
2018-04-22T01:19:48.388Z,88.61
2018-04-22T01:20:48.391Z,88.99
2018-04-22T01:21:48.390Z,88.99
2018-04-22T01:22:48.388Z,88.95
2018-04-22T01:23:48.387Z,89.14
2018-04-22T01:24:48.382Z,88.95
2018-04-22T01:25:48.379Z,88.56
2018-04-22T01:26:48.378Z,89.04
2018-04-22T01:27:48.381Z,88.76
2018-04-22T01:28:48.374Z,89.23
2018-04-22T01:29:48.378Z,89.23
2018-04-22T01:30:48.374Z,89.33
2018-04-22T01:31:48.372Z,89.33
2018-04-22T01:32:48.370Z,89.43
2018-04-22T01:33:48.368Z,89.37
2018-04-22T01:34:48.370Z,89.23
2018-04-22T01:35:48.369Z,89.90
2018-04-22T01:36:48.362Z,89.43
2018-04-22T01:37:48.360Z,89.37
2018-04-22T01:38:48.361Z,89.28
2018-04-22T01:39:48.358Z,88.80
2018-04-22T01:40:48.359Z,88.99
2018-04-22T01:41:48.358Z,88.80
2018-04-22T01:42:48.354Z,88.42
2018-04-22T01:43:48.351Z,88.61
2018-04-22T01:44:48.350Z,88.13
2018-04-22T01:45:48.348Z,87.65
2018-04-22T01:46:48.346Z,87.94
2018-04-22T01:47:48.345Z,87.84
2018-04-22T01:48:48.342Z,87.84
2018-04-22T01:49:48.340Z,87.84
2018-04-22T01:50:48.339Z,87.74
2018-04-22T01:51:48.338Z,87.84
2018-04-22T01:52:48.339Z,87.37
2018-04-22T01:53:48.338Z,87.65
2018-04-22T01:54:48.336Z,88.32
2018-04-22T01:55:48.336Z,87.37
2018-04-22T01:56:48.328Z,87.46
2018-04-22T01:57:48.326Z,87.27
2018-04-22T01:58:48.325Z,86.69
2018-04-22T01:59:48.324Z,86.60
2018-04-22T02:00:48.322Z,86.69
2018-04-22T02:01:48.345Z,86.41
2018-04-22T02:02:48.318Z,86.41
2018-04-22T02:03:48.317Z,86.21
2018-04-22T02:04:48.313Z,86.31
2018-04-22T02:05:48.312Z,86.21
2018-04-22T02:06:48.318Z,86.31
2018-04-22T02:07:48.313Z,86.12
2018-04-22T02:08:48.306Z,86.12
2018-04-22T02:09:48.305Z,85.83
2018-04-22T02:10:48.308Z,85.74
2018-04-22T02:11:48.306Z,85.45
2018-04-22T02:12:48.299Z,85.74
2018-04-22T02:13:48.297Z,85.74
2018-04-22T02:14:48.296Z,85.74
2018-04-22T02:15:48.296Z,85.83
2018-04-22T02:16:48.292Z,85.45
2018-04-22T02:17:48.290Z,85.16
2018-04-22T02:18:48.290Z,85.54
2018-04-22T02:19:48.287Z,84.97
2018-04-22T02:20:48.285Z,85.64
2018-04-22T02:21:48.285Z,85.35
2018-04-22T02:22:48.285Z,85.25
2018-04-22T02:23:48.284Z,85.25
2018-04-22T02:24:48.278Z,85.64
2018-04-22T02:25:48.275Z,85.25
2018-04-22T02:26:48.274Z,85.54
2018-04-22T02:27:48.272Z,86.31
2018-04-22T02:28:48.273Z,86.21
2018-04-22T02:29:48.272Z,86.60
2018-04-22T02:30:48.266Z,87.08
2018-04-22T02:31:48.266Z,87.37
2018-04-22T02:32:48.262Z,87.27
2018-04-22T02:33:48.262Z,87.27
2018-04-22T02:34:48.259Z,87.46
2018-04-22T02:35:48.257Z,88.03
2018-04-22T02:36:48.254Z,87.84
2018-04-22T02:37:48.251Z,87.84
2018-04-22T02:38:48.251Z,87.55
2018-04-22T02:39:48.248Z,87.23
2018-04-22T02:40:48.251Z,87.03
2018-04-22T02:41:48.248Z,86.84
2018-04-22T02:42:48.247Z,86.74
2018-04-22T02:43:48.244Z,86.84
2018-04-22T02:44:48.238Z,86.65
2018-04-22T02:45:48.237Z,86.84
2018-04-22T02:46:48.236Z,86.74
2018-04-22T02:47:48.233Z,86.65
2018-04-22T02:48:48.230Z,86.84
2018-04-22T02:49:48.228Z,86.55
2018-04-22T02:50:48.226Z,86.74
2018-04-22T02:51:48.225Z,86.65
2018-04-22T02:52:48.221Z,86.84
2018-04-22T02:53:48.220Z,86.84
2018-04-22T02:54:48.221Z,87.03
2018-04-22T02:55:48.219Z,86.84
2018-04-22T02:56:48.213Z,86.84
2018-04-22T02:57:48.212Z,87.51
2018-04-22T02:58:48.209Z,87.03
2018-04-22T02:59:48.207Z,87.23
2018-04-22T03:00:48.210Z,87.41
2018-04-22T03:01:48.206Z,87.99
2018-04-22T03:02:48.204Z,87.61
2018-04-22T03:03:48.198Z,87.90
2018-04-22T03:04:48.195Z,88.56
2018-04-22T03:05:48.197Z,87.99
2018-04-22T03:06:48.191Z,88.56
2018-04-22T03:07:48.189Z,88.85
2018-04-22T03:08:48.190Z,88.95
2018-04-22T03:09:48.184Z,88.95
2018-04-22T03:10:48.183Z,87.90
2018-04-22T03:11:48.180Z,88.76
2018-04-22T03:12:48.181Z,88.09
2018-04-22T03:13:48.182Z,87.80
2018-04-22T03:14:48.173Z,87.80
2018-04-22T03:15:48.171Z,87.70
2018-04-22T03:16:48.168Z,87.99
2018-04-22T03:17:48.167Z,88.09
2018-04-22T03:18:48.168Z,87.70
2018-04-22T03:19:48.163Z,87.61
2018-04-22T03:20:48.163Z,88.18
2018-04-22T03:21:48.160Z,88.28
2018-04-22T03:22:48.155Z,87.80
2018-04-22T03:23:48.153Z,88.18
2018-04-22T03:24:48.154Z,88.47
2018-04-22T03:25:48.152Z,88.95
2018-04-22T03:26:48.146Z,87.99
2018-04-22T03:27:48.144Z,88.76
2018-04-22T03:28:48.140Z,88.56
2018-04-22T03:29:48.140Z,88.95
2018-04-22T03:30:48.138Z,89.00
2018-04-22T03:31:48.138Z,89.14
2018-04-22T03:32:48.131Z,88.81
2018-04-22T03:33:48.131Z,88.52
2018-04-22T03:34:48.146Z,89.19
2018-04-22T03:35:48.129Z,89.09
2018-04-22T03:36:48.122Z,89.67
2018-04-22T03:37:48.120Z,90.05
2018-04-22T03:38:48.122Z,89.48
2018-04-22T03:39:48.121Z,88.90
2018-04-22T03:40:48.114Z,89.09
2018-04-22T03:41:48.113Z,89.48
2018-04-22T03:42:48.109Z,90.44
2018-04-22T03:43:48.112Z,90.34
2018-04-22T03:44:48.106Z,89.95
2018-04-22T03:45:48.104Z,90.24
2018-04-22T03:46:48.102Z,90.05
2018-04-22T03:47:48.100Z,90.53
2018-04-22T03:48:48.097Z,90.63
2018-04-22T03:49:48.095Z,90.53
2018-04-22T03:50:48.095Z,90.44
2018-04-22T03:51:48.090Z,91.49
2018-04-22T03:52:48.092Z,91.39
2018-04-22T03:53:48.090Z,90.91
2018-04-22T03:54:48.082Z,91.20
2018-04-22T03:55:48.087Z,91.01
2018-04-22T03:56:48.140Z,90.82
2018-04-22T03:57:48.081Z,90.82
2018-04-22T03:58:48.073Z,91.01
2018-04-22T03:59:48.071Z,91.01
2018-04-22T04:00:48.071Z,91.20
2018-04-22T04:01:48.068Z,90.96
2018-04-22T04:02:48.065Z,91.53
2018-04-22T04:03:48.062Z,91.49
2018-04-22T04:04:48.059Z,91.44
2018-04-22T04:05:48.056Z,91.44
2018-04-22T04:06:48.061Z,91.35
2018-04-22T04:07:48.056Z,91.35
2018-04-22T04:08:48.048Z,91.44
2018-04-22T04:09:48.046Z,91.63
2018-04-22T04:10:48.047Z,91.53
2018-04-22T04:11:48.047Z,91.25
2018-04-22T04:12:48.037Z,91.44
2018-04-22T04:13:48.036Z,91.63
2018-04-22T04:14:48.037Z,91.63
2018-04-22T04:15:48.031Z,91.44
2018-04-22T04:16:48.028Z,91.83
2018-04-22T04:17:48.025Z,91.63
2018-04-22T04:18:48.027Z,91.25
2018-04-22T04:19:48.030Z,91.92
2018-04-22T04:20:48.018Z,92.02
2018-04-22T04:21:48.015Z,91.92
2018-04-22T04:22:48.013Z,91.92
2018-04-22T04:23:48.010Z,91.35
2018-04-22T04:24:48.007Z,91.44
2018-04-22T04:25:48.004Z,91.53
2018-04-22T04:26:48.003Z,91.73
2018-04-22T04:27:48.000Z,91.44
2018-04-22T04:28:47.996Z,91.63
2018-04-22T04:29:47.995Z,92.02
2018-04-22T04:30:48.003Z,91.92
2018-04-22T04:31:47.992Z,91.25
2018-04-22T04:32:47.985Z,91.92
2018-04-22T04:33:47.982Z,91.83
2018-04-22T04:34:47.979Z,91.92
2018-04-22T04:35:47.977Z,92.30
2018-04-22T04:36:47.979Z,92.78
2018-04-22T04:37:47.975Z,92.21
2018-04-22T04:38:47.970Z,92.02
2018-04-22T04:39:47.968Z,92.59
2018-04-22T04:40:47.963Z,92.40
2018-04-22T04:41:47.960Z,92.69
2018-04-22T04:42:47.959Z,92.59
2018-04-22T04:43:47.957Z,92.30
2018-04-22T04:44:47.953Z,92.49
2018-04-22T04:45:47.950Z,92.59
2018-04-22T04:46:47.947Z,92.69
2018-04-22T04:47:47.951Z,92.11
2018-04-22T04:48:47.946Z,92.21
2018-04-22T04:49:47.943Z,92.69
2018-04-22T04:50:47.941Z,92.78
2018-04-22T04:51:47.938Z,93.35
2018-04-22T04:52:47.932Z,93.26
2018-04-22T04:53:47.931Z,93.26
2018-04-22T04:54:47.928Z,93.98
2018-04-22T04:55:47.925Z,93.16
2018-04-22T04:56:47.921Z,93.16
2018-04-22T04:57:47.919Z,93.84
2018-04-22T04:58:47.917Z,93.84
2018-04-22T04:59:47.916Z,93.93
2018-04-22T05:00:47.914Z,93.21
2018-04-22T05:01:47.911Z,92.92
2018-04-22T05:02:47.912Z,92.16
2018-04-22T05:03:47.910Z,92.11
2018-04-22T05:04:47.902Z,91.92
2018-04-22T05:05:47.903Z,91.44
2018-04-22T05:06:47.898Z,90.62
2018-04-22T05:07:47.898Z,89.57
2018-04-22T05:08:47.898Z,88.80
2018-04-22T05:09:47.896Z,87.84
2018-04-22T05:10:47.891Z,87.50
2018-04-22T05:11:47.889Z,86.74
2018-04-22T05:12:47.887Z,86.16
2018-04-22T05:13:47.885Z,85.88
2018-04-22T05:14:47.883Z,85.63
2018-04-22T05:15:47.888Z,85.25
2018-04-22T05:16:47.884Z,84.77
2018-04-22T05:17:47.880Z,84.09
2018-04-22T05:18:47.968Z,84.63
2018-04-22T05:19:47.876Z,84.77
2018-04-22T05:20:47.878Z,84.44
2018-04-22T05:21:47.878Z,84.44
2018-04-22T05:22:47.871Z,84.63
2018-04-22T05:23:47.870Z,85.11
2018-04-22T05:24:47.868Z,84.86
2018-04-22T05:25:47.868Z,85.34
2018-04-22T05:26:47.868Z,85.44
2018-04-22T05:27:47.867Z,85.63
2018-04-22T05:28:47.871Z,85.63
2018-04-22T05:29:47.866Z,85.10
2018-04-22T05:30:47.862Z,85.00
2018-04-22T05:31:47.864Z,84.61
2018-04-22T05:32:47.863Z,83.70
2018-04-22T05:33:47.862Z,83.36
2018-04-22T05:34:47.860Z,82.24
2018-04-22T05:35:47.859Z,81.28
2018-04-22T05:36:47.856Z,79.88
2018-04-22T05:37:47.855Z,79.50
2018-04-22T05:38:47.854Z,78.86
2018-04-22T05:39:47.870Z,78.13
2018-04-22T05:40:47.854Z,77.08
2018-04-22T05:41:47.901Z,76.44
2018-04-22T05:42:47.857Z,75.67
2018-04-22T05:43:47.857Z,74.61
2018-04-22T05:44:47.853Z,74.36
2018-04-22T05:45:47.852Z,74.26
2018-04-22T05:46:47.858Z,73.88
2018-04-22T05:47:47.859Z,73.84
2018-04-22T05:48:47.864Z,73.97
2018-04-22T05:49:47.855Z,72.63
2018-04-22T05:50:47.857Z,72.18
2018-04-22T05:51:47.857Z,71.54
2018-04-22T05:52:47.860Z,70.42
2018-04-22T05:53:47.859Z,69.55
2018-04-22T05:54:47.859Z,68.52
2018-04-22T05:55:47.867Z,67.30
2018-04-22T05:56:47.866Z,67.14
2018-04-22T05:57:47.865Z,66.08
2018-04-22T05:58:47.865Z,64.95
2018-04-22T05:59:47.869Z,63.79
2018-04-22T06:00:47.873Z,62.79
2018-04-22T06:01:47.878Z,62.98
2018-04-22T06:02:47.875Z,62.73
2018-04-22T06:03:47.885Z,62.76
2018-04-22T06:04:47.884Z,61.50
2018-04-22T06:05:47.891Z,59.95
2018-04-22T06:06:47.886Z,61.60
2018-04-22T06:07:47.889Z,61.73
2018-04-22T06:08:47.893Z,62.82
2018-04-22T06:09:47.896Z,62.76
2018-04-22T06:10:47.899Z,62.30
2018-04-22T06:11:47.903Z,60.69
2018-04-22T06:12:47.906Z,60.30
2018-04-22T06:13:47.913Z,60.01
2018-04-22T06:14:47.919Z,59.53
2018-04-22T06:15:47.923Z,59.82
2018-04-22T06:16:47.924Z,59.36
2018-04-22T06:17:47.928Z,58.91
2018-04-22T06:18:47.939Z,58.26
2018-04-22T06:19:47.941Z,56.74
2018-04-22T06:20:47.942Z,55.60
2018-04-22T06:21:47.947Z,54.92
2018-04-22T06:22:47.968Z,54.26
2018-04-22T06:23:47.959Z,54.62
2018-04-22T06:24:47.963Z,56.16
2018-04-22T06:25:47.969Z,56.26
2018-04-22T06:26:47.975Z,56.52
2018-04-22T06:27:47.980Z,57.01
2018-04-22T06:28:47.988Z,57.14
2018-04-22T06:29:47.993Z,56.85
2018-04-22T06:30:47.999Z,57.29
2018-04-22T06:31:48.009Z,56.29
2018-04-22T06:32:48.014Z,56.00
2018-04-22T06:33:48.021Z,56.56
2018-04-22T06:34:48.023Z,56.79
2018-04-22T06:35:48.030Z,58.01
2018-04-22T06:36:48.041Z,57.29
2018-04-22T06:37:48.047Z,56.67
2018-04-22T06:38:48.052Z,55.11
2018-04-22T06:39:48.057Z,54.63
2018-04-22T06:40:48.063Z,54.11
2018-04-22T06:41:48.071Z,53.95
2018-04-22T06:42:48.076Z,53.51
2018-04-22T06:43:48.084Z,54.21
2018-04-22T06:44:48.090Z,53.49
2018-04-22T06:45:48.098Z,52.91
2018-04-22T06:46:48.110Z,52.23
2018-04-22T06:47:48.120Z,52.33
2018-04-22T06:48:48.119Z,52.33
2018-04-22T06:49:48.127Z,52.55
2018-04-22T06:50:48.139Z,52.40
2018-04-22T06:51:48.154Z,52.95
2018-04-22T06:52:48.150Z,52.78
2018-04-22T06:53:48.160Z,53.20
2018-04-22T06:54:48.167Z,52.35
2018-04-22T06:55:48.175Z,51.70
2018-04-22T06:56:48.182Z,50.82
2018-04-22T06:57:48.191Z,51.48
2018-04-22T06:58:48.245Z,51.26
2018-04-22T06:59:48.210Z,51.43
2018-04-22T07:00:48.216Z,52.08
2018-04-22T07:01:48.224Z,52.40
2018-04-22T07:02:48.233Z,52.23
2018-04-22T07:03:48.244Z,52.69
2018-04-22T07:04:48.256Z,52.98
2018-04-22T07:05:48.265Z,53.05
2018-04-22T07:06:48.270Z,53.56
2018-04-22T07:07:48.277Z,53.08
2018-04-22T07:08:48.287Z,53.10
2018-04-22T07:09:48.300Z,52.98
2018-04-22T07:10:48.302Z,52.98
2018-04-22T07:11:48.335Z,53.05
2018-04-22T07:12:48.318Z,53.85
2018-04-22T07:13:48.337Z,53.20
2018-04-22T07:14:48.336Z,52.94
2018-04-22T07:15:48.345Z,52.56
2018-04-22T07:16:48.354Z,53.08
2018-04-22T07:17:48.363Z,53.03
2018-04-22T07:18:48.378Z,52.50
2018-04-22T07:19:48.387Z,51.82
2018-04-22T07:20:48.389Z,50.87
2018-04-22T07:21:48.400Z,50.75
2018-04-22T07:22:48.414Z,50.60
2018-04-22T07:23:48.423Z,50.43
2018-04-22T07:24:48.428Z,49.12
2018-04-22T07:25:48.437Z,48.00
2018-04-22T07:26:48.449Z,47.98
2018-04-22T07:27:48.458Z,48.46
2018-04-22T07:28:48.468Z,48.32
2018-04-22T07:29:48.478Z,47.63
2018-04-22T07:30:48.494Z,47.47
2018-04-22T07:31:48.504Z,48.27
2018-04-22T07:32:48.512Z,48.29
2018-04-22T07:33:48.520Z,47.53
2018-04-22T07:34:48.532Z,46.51
2018-04-22T07:35:48.544Z,46.53
2018-04-22T07:36:48.552Z,44.80
2018-04-22T07:37:48.564Z,43.87
2018-04-22T07:38:48.580Z,43.63
2018-04-22T07:39:48.588Z,44.02
2018-04-22T07:40:48.598Z,43.80
2018-04-22T07:41:48.610Z,43.99
2018-04-22T07:42:48.626Z,43.92
2018-04-22T07:43:48.640Z,44.04
2018-04-22T07:44:48.645Z,43.63
2018-04-22T07:45:48.666Z,43.40
2018-04-22T07:46:48.671Z,42.17
2018-04-22T07:47:48.685Z,41.41
2018-04-22T07:48:48.699Z,40.63
2018-04-22T07:49:48.712Z,40.16
2018-04-22T07:50:48.722Z,39.22
2018-04-22T07:51:48.734Z,38.72
2018-04-22T07:52:48.747Z,38.29
2018-04-22T07:53:48.760Z,38.76
2018-04-22T07:54:48.774Z,38.67
2018-04-22T07:55:48.788Z,39.29
2018-04-22T07:56:48.802Z,40.43
2018-04-22T07:57:48.814Z,41.50
2018-04-22T07:58:48.828Z,42.21
2018-04-22T07:59:48.842Z,41.93
2018-04-22T08:00:48.859Z,40.88
2018-04-22T08:01:48.873Z,41.07
2018-04-22T08:02:48.887Z,41.36
2018-04-22T08:03:48.901Z,41.83
2018-04-22T08:04:48.911Z,42.98
2018-04-22T08:05:48.925Z,43.67
2018-04-22T08:06:48.944Z,42.93
2018-04-22T08:07:48.953Z,42.01
2018-04-22T08:08:48.974Z,41.54
2018-04-22T08:09:48.981Z,41.74
2018-04-22T08:10:48.996Z,41.49
2018-04-22T08:11:49.009Z,40.70
2018-04-22T08:12:49.030Z,40.01
2018-04-22T08:13:49.039Z,40.11
2018-04-22T08:14:49.056Z,40.17
2018-04-22T08:15:49.071Z,40.11
2018-04-22T08:16:49.080Z,39.43
2018-04-22T08:17:49.095Z,39.27
2018-04-22T08:18:49.116Z,39.01
2018-04-22T08:19:49.131Z,38.25
2018-04-22T08:20:49.144Z,37.43
2018-04-22T08:21:49.163Z,38.41
2018-04-22T08:22:49.170Z,38.43
2018-04-22T08:23:49.185Z,37.27
2018-04-22T08:24:49.203Z,36.80
2018-04-22T08:25:49.221Z,36.22
2018-04-22T08:26:49.231Z,35.97
2018-04-22T08:27:49.247Z,35.71
2018-04-22T08:28:49.262Z,34.59
2018-04-22T08:29:49.277Z,33.31
2018-04-22T08:30:49.294Z,32.11
2018-04-22T08:31:49.315Z,31.86
2018-04-22T08:32:49.329Z,31.67
2018-04-22T08:33:49.344Z,31.16
2018-04-22T08:34:49.358Z,31.95
2018-04-22T08:35:49.375Z,32.87
2018-04-22T08:36:49.390Z,33.87
2018-04-22T08:37:49.406Z,34.38
2018-04-22T08:38:49.424Z,34.89
2018-04-22T08:39:49.445Z,34.41
2018-04-22T08:40:49.460Z,34.17
2018-04-22T08:41:49.477Z,33.53
2018-04-22T08:42:49.489Z,31.99
2018-04-22T08:43:49.507Z,30.91
2018-04-22T08:44:49.528Z,29.99
2018-04-22T08:45:49.546Z,29.72
2018-04-22T08:46:49.561Z,30.65
2018-04-22T08:47:49.578Z,31.13
2018-04-22T08:48:49.594Z,30.91
2018-04-22T08:49:49.613Z,31.93
2018-04-22T08:50:49.632Z,31.06
2018-04-22T08:51:49.649Z,31.79
2018-04-22T08:52:49.666Z,33.58
2018-04-22T08:53:49.683Z,33.43
2018-04-22T08:54:49.704Z,33.11
2018-04-22T08:55:49.728Z,31.78
2018-04-22T08:56:49.738Z,31.07
2018-04-22T08:57:49.754Z,30.90
2018-04-22T08:58:49.778Z,31.80
2018-04-22T08:59:49.794Z,31.60
2018-04-22T09:00:49.817Z,32.08
2018-04-22T09:01:49.826Z,31.76
2018-04-22T09:02:49.846Z,31.04
2018-04-22T09:03:49.863Z,29.38
2018-04-22T09:04:49.880Z,28.81
2018-04-22T09:05:49.899Z,28.64
2018-04-22T09:06:49.924Z,29.09
2018-04-22T09:07:49.936Z,30.51
2018-04-22T09:08:49.954Z,31.14
2018-04-22T09:09:49.974Z,30.83
2018-04-22T09:10:50.062Z,31.16
2018-04-22T09:11:50.010Z,32.07
2018-04-22T09:12:50.032Z,32.45
2018-04-22T09:13:50.051Z,32.50
2018-04-22T09:14:50.066Z,33.56
2018-04-22T09:15:50.085Z,33.95
2018-04-22T09:16:50.108Z,34.16
2018-04-22T09:17:50.127Z,34.20
2018-04-22T09:18:50.143Z,34.30
2018-04-22T09:19:50.163Z,33.75
2018-04-22T09:20:50.181Z,32.44
2018-04-22T09:21:50.198Z,30.92
2018-04-22T09:22:50.217Z,29.37
2018-04-22T09:23:50.238Z,28.61
2018-04-22T09:24:50.255Z,28.04
2018-04-22T09:25:50.275Z,26.64
2018-04-22T09:26:50.298Z,27.19
2018-04-22T09:27:50.318Z,28.44
2018-04-22T09:28:50.332Z,28.56
2018-04-22T09:29:50.352Z,28.16
2018-04-22T09:30:50.376Z,28.20
2018-04-22T09:31:50.398Z,28.14
2018-04-22T09:32:50.411Z,29.03
2018-04-22T09:33:50.431Z,28.72
2018-04-22T09:34:50.451Z,28.11
2018-04-22T09:35:50.471Z,27.75
2018-04-22T09:36:50.492Z,26.31
2018-04-22T09:37:50.512Z,25.50
2018-04-22T09:38:50.535Z,26.17
2018-04-22T09:39:50.557Z,26.04
2018-04-22T09:40:50.573Z,25.80
2018-04-22T09:41:50.594Z,25.54
2018-04-22T09:42:50.614Z,24.51
2018-04-22T09:43:50.634Z,24.33
2018-04-22T09:44:50.653Z,24.49
2018-04-22T09:45:50.732Z,23.93
2018-04-22T09:46:50.696Z,22.94
2018-04-22T09:47:50.718Z,22.83
2018-04-22T09:48:50.737Z,22.54
2018-04-22T09:49:50.797Z,22.86
2018-04-22T09:50:50.784Z,23.18
2018-04-22T09:51:50.806Z,23.08
2018-04-22T09:52:50.823Z,23.00
2018-04-22T09:53:50.846Z,22.32
2018-04-22T09:54:50.868Z,22.94
2018-04-22T09:55:50.889Z,24.42
2018-04-22T09:56:50.914Z,25.10
2018-04-22T09:57:50.935Z,25.66
2018-04-22T09:58:50.952Z,25.85
2018-04-22T09:59:50.974Z,26.98
2018-04-22T10:00:50.994Z,26.15
2018-04-22T10:01:51.016Z,26.89
2018-04-22T10:02:51.037Z,28.78
2018-04-22T10:03:51.059Z,28.89
2018-04-22T10:04:51.115Z,28.20
2018-04-22T10:05:51.097Z,27.81
2018-04-22T10:06:51.117Z,28.32
2018-04-22T10:07:51.139Z,28.15
2018-04-22T10:08:51.159Z,27.25
2018-04-22T10:09:51.178Z,27.16
2018-04-22T10:10:51.242Z,26.79
2018-04-22T10:11:51.217Z,25.92
2018-04-22T10:12:51.235Z,26.34
2018-04-22T10:13:51.252Z,25.13
2018-04-22T10:14:51.270Z,24.74
2018-04-22T10:15:51.294Z,27.17
2018-04-22T10:16:51.307Z,28.37
2018-04-22T10:17:51.327Z,28.52
2018-04-22T10:18:51.344Z,28.56
2018-04-22T10:19:51.371Z,28.01
2018-04-22T10:20:51.381Z,27.27
2018-04-22T10:21:51.441Z,25.61
2018-04-22T10:22:51.442Z,26.18
2018-04-22T10:23:51.442Z,27.84
2018-04-22T10:24:51.461Z,27.39
2018-04-22T10:25:51.474Z,27.77
2018-04-22T10:26:51.493Z,28.25
2018-04-22T10:27:51.512Z,28.64
2018-04-22T10:28:51.533Z,28.51
2018-04-22T10:29:51.552Z,29.71
2018-04-22T10:30:51.567Z,29.64
2018-04-22T10:31:51.584Z,28.72
2018-04-22T10:32:51.603Z,28.40
2018-04-22T10:33:51.618Z,28.97
2018-04-22T10:34:51.636Z,28.99
2018-04-22T10:35:51.655Z,29.71
2018-04-22T10:36:51.670Z,28.93
2018-04-22T10:37:51.688Z,29.24
2018-04-22T10:38:51.706Z,29.23
2018-04-22T10:39:51.724Z,29.33
2018-04-22T10:40:51.743Z,29.74
2018-04-22T10:41:51.760Z,29.17
2018-04-22T10:42:51.773Z,29.68
2018-04-22T10:43:51.793Z,28.70
2018-04-22T10:44:51.807Z,28.32
2018-04-22T10:45:51.825Z,28.22
2018-04-22T10:46:51.845Z,26.97
2018-04-22T10:47:51.862Z,27.35
2018-04-22T10:48:51.876Z,28.14
2018-04-22T10:49:51.891Z,28.35
2018-04-22T10:50:51.913Z,29.57
2018-04-22T10:51:51.930Z,28.52
2018-04-22T10:52:51.943Z,28.05
2018-04-22T10:53:51.960Z,26.28
2018-04-22T10:54:51.977Z,25.65
2018-04-22T10:55:51.994Z,25.85
2018-04-22T10:56:52.011Z,26.17
2018-04-22T10:57:52.063Z,26.27
2018-04-22T10:58:52.045Z,27.33
2018-04-22T10:59:52.072Z,25.55
2018-04-22T11:00:52.093Z,26.55
2018-04-22T11:01:52.099Z,26.85
2018-04-22T11:02:52.115Z,27.16
2018-04-22T11:03:52.133Z,25.18
2018-04-22T11:04:52.154Z,24.77
2018-04-22T11:05:52.172Z,25.46
2018-04-22T11:06:52.184Z,26.13
2018-04-22T11:07:52.202Z,27.21
2018-04-22T11:08:52.221Z,27.15
2018-04-22T11:09:52.239Z,27.96
2018-04-22T11:10:52.253Z,29.43
2018-04-22T11:11:52.268Z,30.38
2018-04-22T11:12:52.285Z,30.74
2018-04-22T11:13:52.303Z,32.01
2018-04-22T11:14:52.321Z,33.14
2018-04-22T11:15:52.332Z,33.50
2018-04-22T11:16:52.347Z,34.80
2018-04-22T11:17:52.362Z,36.13
2018-04-22T11:18:52.384Z,37.27
2018-04-22T11:19:52.395Z,38.61
2018-04-22T11:20:52.417Z,38.73
2018-04-22T11:21:52.420Z,39.26
2018-04-22T11:22:52.438Z,38.81
2018-04-22T11:23:52.461Z,37.77
2018-04-22T11:24:52.460Z,36.79
2018-04-22T11:25:52.481Z,36.61
2018-04-22T11:26:52.487Z,36.82
2018-04-22T11:27:52.502Z,37.43
2018-04-22T11:28:52.516Z,36.45
2018-04-22T11:29:52.526Z,35.60
2018-04-22T11:30:52.537Z,35.88
2018-04-22T11:31:52.550Z,34.69
2018-04-22T11:32:52.562Z,34.74
2018-04-22T11:33:52.575Z,35.42
2018-04-22T11:34:52.588Z,36.08
2018-04-22T11:35:52.599Z,35.87
2018-04-22T11:36:52.616Z,36.44
2018-04-22T11:37:52.627Z,36.83
2018-04-22T11:38:52.635Z,37.22
2018-04-22T11:39:52.649Z,37.21
2018-04-22T11:40:52.662Z,37.34
2018-04-22T11:41:52.674Z,37.41
2018-04-22T11:42:52.683Z,37.14
2018-04-22T11:43:52.693Z,36.73
2018-04-22T11:44:52.704Z,37.67
2018-04-22T11:45:52.715Z,38.12
2018-04-22T11:46:52.731Z,38.49
2018-04-22T11:47:52.742Z,39.88
2018-04-22T11:48:52.750Z,40.68
2018-04-22T11:49:52.763Z,41.48
2018-04-22T11:50:52.768Z,41.99
2018-04-22T11:51:52.779Z,42.19
2018-04-22T11:52:52.787Z,41.25
2018-04-22T11:53:52.803Z,40.37
2018-04-22T11:54:52.808Z,38.63
2018-04-22T11:55:52.818Z,38.34
2018-04-22T11:56:52.825Z,38.55
2018-04-22T11:57:52.835Z,38.26
2018-04-22T11:58:52.846Z,37.16
2018-04-22T11:59:52.877Z,37.24
2018-04-22T12:00:52.866Z,37.21
2018-04-22T12:01:52.876Z,38.16
2018-04-22T12:02:52.885Z,38.73
2018-04-22T12:03:52.895Z,38.81
2018-04-22T12:04:52.900Z,39.20
2018-04-22T12:05:52.908Z,40.48
2018-04-22T12:06:52.916Z,40.68
2018-04-22T12:07:52.928Z,40.89
2018-04-22T12:08:52.933Z,40.11
2018-04-22T12:09:52.943Z,40.23
2018-04-22T12:10:52.955Z,40.14
2018-04-22T12:11:52.960Z,39.26
2018-04-22T12:12:52.967Z,38.77
2018-04-22T12:13:52.976Z,38.77
2018-04-22T12:14:52.988Z,38.84
2018-04-22T12:15:52.997Z,39.04
2018-04-22T12:16:53.001Z,39.90
2018-04-22T12:17:53.009Z,41.27
2018-04-22T12:18:53.017Z,41.28
2018-04-22T12:19:53.027Z,41.60
2018-04-22T12:20:53.037Z,41.60
2018-04-22T12:21:53.044Z,40.72
2018-04-22T12:22:53.049Z,40.94
2018-04-22T12:23:53.057Z,40.27
2018-04-22T12:24:53.065Z,40.76
2018-04-22T12:25:53.073Z,39.98
2018-04-22T12:26:53.081Z,39.20
2018-04-22T12:27:53.090Z,39.10
2018-04-22T12:28:53.097Z,38.12
2018-04-22T12:29:53.108Z,38.98
2018-04-22T12:30:53.155Z,39.18
2018-04-22T12:31:53.136Z,40.27
2018-04-22T12:32:53.133Z,40.56
2018-04-22T12:33:53.141Z,40.97
2018-04-22T12:34:53.150Z,40.48
2018-04-22T12:35:53.158Z,40.88
2018-04-22T12:36:53.163Z,40.78
2018-04-22T12:37:53.185Z,40.19
2018-04-22T12:38:53.178Z,40.01
2018-04-22T12:39:53.186Z,40.31
2018-04-22T12:40:53.193Z,40.50
2018-04-22T12:41:53.203Z,39.31
2018-04-22T12:42:53.210Z,39.51
2018-04-22T12:43:53.218Z,40.11
2018-04-22T12:44:53.227Z,40.01
2018-04-22T12:45:53.234Z,39.35
2018-04-22T12:46:53.247Z,39.14
2018-04-22T12:47:53.260Z,40.03
2018-04-22T12:48:53.259Z,40.03
2018-04-22T12:49:53.268Z,39.25
2018-04-22T12:50:53.276Z,40.14
2018-04-22T12:51:53.286Z,40.03
2018-04-22T12:52:53.293Z,39.92